createdAt,value
2022-08-14T00:01:24.005Z,16.80
2022-08-14T00:03:57.551Z,16.70
2022-08-14T00:06:32.300Z,16.60
2022-08-14T00:09:06.173Z,16.60
2022-08-14T00:11:40.247Z,16.60
2022-08-14T00:14:17.500Z,16.70
2022-08-14T00:16:55.779Z,16.70
2022-08-14T00:19:29.384Z,16.70
2022-08-14T00:22:06.575Z,16.70
2022-08-14T00:24:39.740Z,16.70
2022-08-14T00:27:13.259Z,16.60
2022-08-14T00:29:50.310Z,16.50
2022-08-14T00:32:52.007Z,16.50
2022-08-14T00:35:16.672Z,16.40
2022-08-14T00:37:51.930Z,16.40
2022-08-14T00:40:33.066Z,16.30
2022-08-14T00:43:07.919Z,16.30
2022-08-14T00:45:41.449Z,16.40
2022-08-14T00:48:14.552Z,16.40
2022-08-14T00:51:10.669Z,16.40
2022-08-14T00:53:50.312Z,16.40
2022-08-14T00:56:26.641Z,16.40
2022-08-14T00:59:04.789Z,16.30
2022-08-14T01:01:38.869Z,16.30
2022-08-14T01:04:37.744Z,16.30
2022-08-14T01:07:09.036Z,16.20
2022-08-14T01:09:43.758Z,16.20
2022-08-14T01:12:27.320Z,16.20
2022-08-14T01:15:05.387Z,16.10
2022-08-14T01:18:00.376Z,16.10
2022-08-14T01:20:51.729Z,16.10
2022-08-14T01:23:26.386Z,16.00
2022-08-14T01:26:34.349Z,16.00
2022-08-14T01:29:11.004Z,16.00
2022-08-14T01:32:04.492Z,16.00
2022-08-14T01:35:19.618Z,16.10
2022-08-14T01:37:36.724Z,16.10
2022-08-14T01:40:19.965Z,16.10
2022-08-14T01:42:58.638Z,16.00
2022-08-14T01:45:40.144Z,16.10
2022-08-14T01:48:14.592Z,16.00
2022-08-14T01:50:47.689Z,16.00
2022-08-14T01:53:22.713Z,16.00
2022-08-14T01:55:58.918Z,15.90
2022-08-14T01:58:32.073Z,15.90
2022-08-14T02:01:06.767Z,15.90
2022-08-14T02:03:43.091Z,15.90
2022-08-14T02:06:32.909Z,15.90
2022-08-14T02:09:19.070Z,15.90
2022-08-14T02:11:56.349Z,15.80
2022-08-14T02:14:32.169Z,15.80
2022-08-14T02:17:12.248Z,15.80
2022-08-14T02:19:45.383Z,15.80
2022-08-14T02:22:28.698Z,15.80
2022-08-14T02:25:07.595Z,15.80
2022-08-14T02:28:22.349Z,15.70
2022-08-14T02:30:40.042Z,15.60
2022-08-14T02:33:13.350Z,15.50
2022-08-14T02:35:49.911Z,15.50
2022-08-14T02:38:29.961Z,15.50
2022-08-14T02:41:08.979Z,15.40
2022-08-14T02:43:46.375Z,15.40
2022-08-14T02:46:26.959Z,15.40
2022-08-14T02:49:06.624Z,15.40
2022-08-14T02:51:41.285Z,15.40
2022-08-14T02:54:19.757Z,15.30
2022-08-14T02:57:16.604Z,15.20
2022-08-14T02:59:50.043Z,15.10
2022-08-14T03:02:33.493Z,15.10
2022-08-14T03:05:17.431Z,15.00
2022-08-14T03:07:52.817Z,14.90
2022-08-14T03:10:32.302Z,14.90
2022-08-14T03:13:06.705Z,14.90
2022-08-14T03:15:58.135Z,14.90
2022-08-14T03:18:32.819Z,14.90
2022-08-14T03:21:08.677Z,14.90
2022-08-14T03:23:43.439Z,14.90
2022-08-14T03:26:30.402Z,14.90
2022-08-14T03:29:05.266Z,14.80
2022-08-14T03:31:51.267Z,14.80
2022-08-14T03:34:52.663Z,14.80
2022-08-14T03:37:37.370Z,14.80
2022-08-14T03:40:17.652Z,14.80
2022-08-14T03:42:51.798Z,14.70
2022-08-14T03:45:35.347Z,14.70
2022-08-14T03:48:30.257Z,14.60
2022-08-14T03:51:04.861Z,14.60
2022-08-14T03:53:44.093Z,14.50
2022-08-14T03:56:21.453Z,14.50
2022-08-14T03:58:59.196Z,14.50
2022-08-14T04:01:39.270Z,14.50
2022-08-14T04:04:16.072Z,14.60
2022-08-14T04:06:51.435Z,14.50
2022-08-14T04:09:26.717Z,14.40
2022-08-14T04:12:00.201Z,14.50
2022-08-14T04:14:37.137Z,14.40
2022-08-14T04:17:11.249Z,14.50
2022-08-14T04:19:47.472Z,14.50
2022-08-14T04:22:22.190Z,14.50
2022-08-14T04:24:55.661Z,14.40
2022-08-14T04:27:29.399Z,14.50
2022-08-14T04:30:05.567Z,14.50
2022-08-14T04:33:02.434Z,14.50
2022-08-14T04:35:55.336Z,14.50
2022-08-14T04:38:44.142Z,14.60
2022-08-14T04:41:38.126Z,14.50
2022-08-14T04:44:36.154Z,14.40
2022-08-14T04:47:27.096Z,14.20
2022-08-14T04:50:05.002Z,14.30
2022-08-14T04:52:39.618Z,14.30
2022-08-14T04:55:12.722Z,14.20
2022-08-14T04:57:47.326Z,14.20
2022-08-14T05:00:22.162Z,14.10
2022-08-14T05:02:58.028Z,14.20
2022-08-14T05:05:32.750Z,14.20
2022-08-14T05:08:32.182Z,14.10
2022-08-14T05:11:11.865Z,14.10
2022-08-14T05:14:33.700Z,14.20
2022-08-14T05:16:39.867Z,14.30
2022-08-14T05:19:18.973Z,14.50
2022-08-14T05:22:18.862Z,14.50
2022-08-14T05:24:53.729Z,14.50
2022-08-14T05:27:30.928Z,14.80
2022-08-14T05:30:08.505Z,15.00
2022-08-14T05:32:42.419Z,15.40
2022-08-14T05:35:21.759Z,16.30
2022-08-14T05:37:55.181Z,17.10
2022-08-14T05:40:30.040Z,17.80
2022-08-14T05:43:06.833Z,18.30
2022-08-14T05:45:40.526Z,18.70
2022-08-14T05:48:32.945Z,19.10
2022-08-14T05:51:07.171Z,19.40
2022-08-14T05:53:42.466Z,19.60
2022-08-14T05:56:17.201Z,19.60
2022-08-14T05:58:50.305Z,20.00
2022-08-14T06:01:23.549Z,20.20
2022-08-14T06:03:57.023Z,20.10
2022-08-14T06:06:32.661Z,20.40
2022-08-14T06:09:10.535Z,20.50
2022-08-14T06:11:45.071Z,20.80
2022-08-14T06:14:24.076Z,21.00
2022-08-14T06:16:57.412Z,21.20
2022-08-14T06:19:30.705Z,21.70
2022-08-14T06:22:04.195Z,21.90
2022-08-14T06:24:37.348Z,22.00
2022-08-14T06:27:18.507Z,22.00
2022-08-14T06:29:55.735Z,22.00
2022-08-14T06:32:38.156Z,22.50
2022-08-14T06:35:14.716Z,23.10
2022-08-14T06:37:51.456Z,23.20
2022-08-14T06:40:28.679Z,24.00
2022-08-14T06:43:05.624Z,24.00
2022-08-14T06:45:42.430Z,24.20
2022-08-14T06:48:17.628Z,24.40
2022-08-14T06:50:52.258Z,24.90
2022-08-14T06:53:27.514Z,25.30
2022-08-14T06:56:02.377Z,24.70
2022-08-14T06:58:37.016Z,25.00
2022-08-14T07:01:28.035Z,25.20
2022-08-14T07:04:31.022Z,25.40
2022-08-14T07:07:06.839Z,25.60
2022-08-14T07:09:44.235Z,26.40
2022-08-14T07:12:52.111Z,26.40
2022-08-14T07:15:18.361Z,26.40
2022-08-14T07:17:54.047Z,26.30
2022-08-14T07:20:30.626Z,26.10
2022-08-14T07:23:11.073Z,26.00
2022-08-14T07:25:56.706Z,26.20
2022-08-14T07:28:34.693Z,25.90
2022-08-14T07:31:12.341Z,26.20
2022-08-14T07:33:50.795Z,26.40
2022-08-14T07:36:27.528Z,26.60
2022-08-14T07:39:12.440Z,26.80
2022-08-14T07:41:46.606Z,27.30
2022-08-14T07:44:29.060Z,27.30
2022-08-14T07:47:07.804Z,27.40
2022-08-14T07:49:43.504Z,27.60
2022-08-14T07:52:22.255Z,27.90
2022-08-14T07:55:04.944Z,28.50
2022-08-14T07:57:38.349Z,28.10
2022-08-14T08:00:31.136Z,28.10
2022-08-14T08:03:10.863Z,28.70
2022-08-14T08:05:45.279Z,28.80
2022-08-14T08:08:27.211Z,29.30
2022-08-14T08:11:03.732Z,29.50
2022-08-14T08:13:49.074Z,29.60
2022-08-14T08:16:30.053Z,30.00
2022-08-14T08:19:12.821Z,30.40
2022-08-14T08:21:47.684Z,30.30
2022-08-14T08:24:21.042Z,30.60
2022-08-14T08:26:54.234Z,30.70
2022-08-14T08:29:28.544Z,31.00
2022-08-14T08:32:06.173Z,30.70
2022-08-14T08:34:49.311Z,30.90
2022-08-14T08:37:22.726Z,31.00
2022-08-14T08:40:01.987Z,30.70
2022-08-14T08:42:38.757Z,30.90
2022-08-14T08:45:17.637Z,30.90
2022-08-14T08:47:52.953Z,30.50
2022-08-14T08:53:06.817Z,30.90
2022-08-14T08:55:42.451Z,30.70
2022-08-14T08:58:24.934Z,31.20
2022-08-14T09:01:00.618Z,30.90
2022-08-14T09:03:37.880Z,31.00
2022-08-14T09:07:01.644Z,31.50
2022-08-14T09:09:22.827Z,31.30
2022-08-14T09:11:58.495Z,31.00
2022-08-14T09:14:36.458Z,30.20
2022-08-14T09:17:13.154Z,30.40
2022-08-14T09:19:47.936Z,30.70
2022-08-14T09:22:35.884Z,30.80
2022-08-14T09:25:09.843Z,31.10
2022-08-14T09:27:43.862Z,31.00
2022-08-14T09:30:32.121Z,31.20
2022-08-14T09:33:33.089Z,31.10
2022-08-14T09:36:28.945Z,30.90
2022-08-14T09:39:23.001Z,31.20
2022-08-14T09:42:36.781Z,31.10
2022-08-14T09:45:20.915Z,31.00
2022-08-14T09:47:57.260Z,31.40
2022-08-14T09:50:33.151Z,31.50
2022-08-14T09:53:18.315Z,31.30
2022-08-14T09:56:02.319Z,31.50
2022-08-14T09:58:41.535Z,31.40
2022-08-14T10:01:17.257Z,31.30
2022-08-14T10:03:55.611Z,31.40
2022-08-14T10:06:31.012Z,31.30
2022-08-14T10:09:11.993Z,31.10
2022-08-14T10:11:59.736Z,31.20
2022-08-14T10:14:37.154Z,30.60
2022-08-14T10:17:10.480Z,30.90
2022-08-14T10:19:49.878Z,31.10
2022-08-14T10:23:21.820Z,31.30
2022-08-14T10:25:23.129Z,31.30
2022-08-14T10:28:00.317Z,31.20
2022-08-14T10:30:37.705Z,31.20
2022-08-14T10:33:11.292Z,31.10
2022-08-14T10:35:48.062Z,30.60
2022-08-14T10:38:33.710Z,30.60
2022-08-14T10:41:15.274Z,30.60
2022-08-14T10:44:20.867Z,30.70
2022-08-14T10:47:39.478Z,30.70
2022-08-14T10:50:03.549Z,30.50
2022-08-14T10:52:38.203Z,30.80
2022-08-14T10:55:19.432Z,30.70
2022-08-14T10:57:57.535Z,30.30
2022-08-14T11:00:35.624Z,30.20
2022-08-14T11:03:19.853Z,30.30
2022-08-14T11:06:18.729Z,30.40
2022-08-14T11:08:52.201Z,30.60
2022-08-14T11:11:28.634Z,30.40
2022-08-14T11:14:10.642Z,30.30
2022-08-14T11:16:49.098Z,30.20
2022-08-14T11:19:27.404Z,30.40
2022-08-14T11:22:04.217Z,30.20
2022-08-14T11:24:54.965Z,30.20
2022-08-14T11:27:33.240Z,30.10
2022-08-14T11:30:50.981Z,30.10
2022-08-14T11:33:07.607Z,30.10
2022-08-14T11:35:47.190Z,29.90
2022-08-14T11:38:25.600Z,29.90
2022-08-14T11:41:00.291Z,30.20
2022-08-14T11:43:40.598Z,30.10
2022-08-14T11:46:17.833Z,29.90
2022-08-14T11:49:05.631Z,29.90
2022-08-14T11:51:52.972Z,29.80
2022-08-14T11:54:33.902Z,29.90
2022-08-14T11:57:15.943Z,30.10
2022-08-14T12:00:03.959Z,30.10
2022-08-14T12:03:02.548Z,30.00
2022-08-14T12:05:46.370Z,30.30
2022-08-14T12:08:24.416Z,30.10
2022-08-14T12:10:58.911Z,30.10
2022-08-14T12:13:34.790Z,30.20
2022-08-14T12:16:20.441Z,30.30
2022-08-14T12:18:59.662Z,30.00
2022-08-14T12:21:34.302Z,30.20
2022-08-14T12:24:36.084Z,30.40
2022-08-14T12:27:03.648Z,30.60
2022-08-14T12:29:36.754Z,30.80
2022-08-14T12:32:13.775Z,30.70
2022-08-14T12:34:55.154Z,30.70
2022-08-14T12:37:32.752Z,30.60
2022-08-14T12:40:19.627Z,30.70
2022-08-14T12:42:56.618Z,30.60
2022-08-14T12:45:36.735Z,30.60
2022-08-14T12:48:21.452Z,30.60
2022-08-14T12:51:03.576Z,30.30
2022-08-14T12:53:39.083Z,30.20
2022-08-14T12:56:21.968Z,30.20
2022-08-14T12:59:06.421Z,30.20
2022-08-14T13:01:59.247Z,30.30
2022-08-14T13:04:35.458Z,30.30
2022-08-14T13:07:08.919Z,30.50
2022-08-14T13:09:44.972Z,30.50
2022-08-14T13:12:35.214Z,30.70
2022-08-14T13:15:17.837Z,30.70
2022-08-14T13:17:56.443Z,30.50
2022-08-14T13:20:33.770Z,30.70
2022-08-14T13:23:09.439Z,30.40
2022-08-14T13:25:55.832Z,30.60
2022-08-14T13:28:34.000Z,30.60
2022-08-14T13:31:11.503Z,30.80
2022-08-14T13:33:45.521Z,30.80
2022-08-14T13:36:24.071Z,30.70
2022-08-14T13:39:13.104Z,30.60
2022-08-14T13:41:48.702Z,30.80
2022-08-14T13:44:29.463Z,30.70
2022-08-14T13:47:06.956Z,30.60
2022-08-14T13:49:57.624Z,30.70
2022-08-14T13:52:52.653Z,30.70
2022-08-14T13:55:29.361Z,30.80
2022-08-14T13:58:05.296Z,30.70
2022-08-14T14:00:52.970Z,30.60
2022-08-14T14:03:30.247Z,30.70
2022-08-14T14:06:05.940Z,30.70
2022-08-14T14:08:48.090Z,30.80
2022-08-14T14:11:23.996Z,30.90
2022-08-14T14:14:00.492Z,30.90
2022-08-14T14:16:34.074Z,30.80
2022-08-14T14:19:10.181Z,30.60
2022-08-14T14:21:44.823Z,30.70
2022-08-14T14:24:20.053Z,30.80
2022-08-14T14:26:53.846Z,30.90
2022-08-14T14:29:33.562Z,30.80
2022-08-14T14:32:21.286Z,30.70
2022-08-14T14:34:55.719Z,30.60
2022-08-14T14:37:31.460Z,30.80
2022-08-14T14:40:52.817Z,30.70
2022-08-14T14:43:04.135Z,30.70
2022-08-14T14:45:45.980Z,30.60
2022-08-14T14:48:20.195Z,30.50
2022-08-14T14:50:53.918Z,30.50
2022-08-14T14:53:28.096Z,30.50
2022-08-14T14:56:51.278Z,30.60
2022-08-14T14:58:59.110Z,30.80
2022-08-14T15:01:36.426Z,30.90
2022-08-14T15:04:20.674Z,30.80
2022-08-14T15:06:54.405Z,30.70
2022-08-14T15:09:27.858Z,30.60
2022-08-14T15:12:02.640Z,30.50
2022-08-14T15:14:55.785Z,30.60
2022-08-14T15:17:40.849Z,30.70
2022-08-14T15:20:29.897Z,30.70
2022-08-14T15:23:11.632Z,30.70
2022-08-14T15:25:52.297Z,30.60
2022-08-14T15:28:26.982Z,30.80
2022-08-14T15:31:00.279Z,31.00
2022-08-14T15:34:13.476Z,30.80
2022-08-14T15:36:46.049Z,30.80
2022-08-14T15:39:19.229Z,30.80
2022-08-14T15:41:53.129Z,30.50
2022-08-14T15:44:36.461Z,30.30
2022-08-14T15:47:09.924Z,30.30
2022-08-14T15:49:44.398Z,30.20
2022-08-14T15:52:32.996Z,30.10
2022-08-14T15:55:12.993Z,30.10
2022-08-14T15:58:01.836Z,30.00
2022-08-14T16:00:55.737Z,30.20
2022-08-14T16:03:35.756Z,30.20
2022-08-14T16:06:18.055Z,30.10
2022-08-14T16:08:58.698Z,30.10
2022-08-14T16:11:33.489Z,30.10
2022-08-14T16:14:09.994Z,30.20
2022-08-14T16:16:51.750Z,30.40
2022-08-14T16:19:39.860Z,30.50
2022-08-14T16:22:59.241Z,30.40
2022-08-14T16:25:34.443Z,30.30
2022-08-14T16:28:08.656Z,30.20
2022-08-14T16:30:45.052Z,30.10
2022-08-14T16:33:27.919Z,30.00
2022-08-14T16:36:30.744Z,29.90
2022-08-14T16:39:08.328Z,29.90
2022-08-14T16:41:51.189Z,30.20
2022-08-14T16:44:33.745Z,30.30
2022-08-14T16:47:12.752Z,30.20
2022-08-14T16:50:04.140Z,30.10
2022-08-14T16:52:44.399Z,30.10
2022-08-14T16:55:19.739Z,30.00
2022-08-14T16:57:58.532Z,29.90
2022-08-14T17:00:43.586Z,29.80
2022-08-14T17:03:17.640Z,29.60
2022-08-14T17:05:51.034Z,29.50
2022-08-14T17:08:41.689Z,29.40
2022-08-14T17:11:18.706Z,29.30
2022-08-14T17:14:00.213Z,29.20
2022-08-14T17:16:37.838Z,29.10
2022-08-14T17:19:14.143Z,29.00
2022-08-14T17:21:51.483Z,28.90
2022-08-14T17:24:57.230Z,28.70
2022-08-14T17:27:23.470Z,28.60
2022-08-14T17:29:57.681Z,28.50
2022-08-14T17:32:55.641Z,28.40
2022-08-14T17:38:39.581Z,28.20
2022-08-14T17:44:34.235Z,27.90
2022-08-14T17:47:20.347Z,27.80
2022-08-14T17:49:53.857Z,27.70
2022-08-14T17:52:34.807Z,27.60
2022-08-14T17:56:00.441Z,27.40
2022-08-14T17:58:20.341Z,27.30
2022-08-14T18:00:57.813Z,27.20
2022-08-14T18:03:50.195Z,27.10
2022-08-14T18:06:39.903Z,27.00
2022-08-14T18:09:26.061Z,26.80
2022-08-14T18:12:03.953Z,26.70
2022-08-14T18:14:48.854Z,26.60
2022-08-14T18:17:27.948Z,26.50
2022-08-14T18:21:24.810Z,26.30
2022-08-14T18:22:57.572Z,26.20
2022-08-14T18:25:35.554Z,26.00
2022-08-14T18:28:18.060Z,25.80
2022-08-14T18:31:43.655Z,25.70
2022-08-14T18:34:31.899Z,25.60
2022-08-14T18:37:16.941Z,25.40
2022-08-14T18:40:02.512Z,25.30
2022-08-14T18:42:46.838Z,25.20
2022-08-14T18:45:28.590Z,25.00
2022-08-14T18:48:28.461Z,24.90
2022-08-14T18:51:10.626Z,24.70
2022-08-14T18:54:01.845Z,24.60
2022-08-14T18:56:58.940Z,24.50
2022-08-14T18:59:37.369Z,24.40
2022-08-14T19:02:45.837Z,24.20
2022-08-14T19:05:59.546Z,24.20
2022-08-14T19:08:38.498Z,24.00
2022-08-14T19:11:45.064Z,23.90
2022-08-14T19:14:47.514Z,23.80
2022-08-14T19:18:14.004Z,23.70
2022-08-14T19:20:52.876Z,23.60
2022-08-14T19:23:40.619Z,23.50
2022-08-14T19:26:36.956Z,23.40
2022-08-14T19:29:23.684Z,23.30
2022-08-14T19:31:58.979Z,23.20
2022-08-14T19:34:52.251Z,23.10
2022-08-14T19:37:52.041Z,23.00
2022-08-14T19:40:38.491Z,22.90
2022-08-14T19:43:55.546Z,22.80
2022-08-14T19:46:38.496Z,22.70
2022-08-14T19:49:21.322Z,22.60
2022-08-14T19:51:56.623Z,22.50
2022-08-14T19:54:31.607Z,22.50
2022-08-14T19:57:18.883Z,22.30
2022-08-14T20:00:04.529Z,22.30
2022-08-14T20:02:38.031Z,22.30
2022-08-14T20:05:12.454Z,22.30
2022-08-14T20:07:59.327Z,22.30
2022-08-14T20:11:11.044Z,22.20
2022-08-14T20:13:38.611Z,22.20
2022-08-14T20:16:21.170Z,22.10
2022-08-14T20:19:23.220Z,22.20
2022-08-14T20:22:04.666Z,22.20
2022-08-14T20:24:54.383Z,22.20
2022-08-14T20:27:39.608Z,22.20
2022-08-14T20:30:33.942Z,22.00
2022-08-14T20:33:11.816Z,22.00
2022-08-14T20:35:51.553Z,22.00
2022-08-14T20:38:33.547Z,22.00
2022-08-14T20:41:12.444Z,22.00
2022-08-14T20:44:06.650Z,21.80
2022-08-14T20:46:42.303Z,21.80
2022-08-14T20:49:18.528Z,21.70
2022-08-14T20:52:00.193Z,21.70
2022-08-14T20:54:50.174Z,21.80
2022-08-14T20:57:23.945Z,21.80
2022-08-14T20:59:57.722Z,21.80
2022-08-14T21:02:38.707Z,21.70
2022-08-14T21:05:34.032Z,21.70
2022-08-14T21:08:22.591Z,21.80
2022-08-14T21:11:02.705Z,21.80
2022-08-14T21:14:20.963Z,21.60
2022-08-14T21:16:33.510Z,21.60
2022-08-14T21:19:09.363Z,21.50
2022-08-14T21:21:55.008Z,21.50
2022-08-14T21:24:47.048Z,21.60
2022-08-14T21:27:23.004Z,21.60
2022-08-14T21:29:56.812Z,21.50
2022-08-14T21:32:50.580Z,21.50
2022-08-14T21:35:31.833Z,21.50
2022-08-14T21:38:17.883Z,21.50
2022-08-14T21:40:55.514Z,21.50
2022-08-14T21:43:32.312Z,21.40
2022-08-14T21:46:05.965Z,21.40
2022-08-14T21:48:39.115Z,21.40
2022-08-14T21:51:53.866Z,21.40
2022-08-14T21:54:30.398Z,21.40
2022-08-14T21:57:13.761Z,21.40
2022-08-14T21:59:49.378Z,21.30
2022-08-14T22:02:32.489Z,21.30
2022-08-14T22:05:07.325Z,21.30
2022-08-14T22:07:41.800Z,21.30
2022-08-14T22:10:22.939Z,21.30
2022-08-14T22:13:01.160Z,21.30
2022-08-14T22:15:35.521Z,21.40
2022-08-14T22:18:20.426Z,21.30
2022-08-14T22:20:56.477Z,21.30
2022-08-14T22:23:31.363Z,21.20
2022-08-14T22:26:05.917Z,21.30
2022-08-14T22:28:39.080Z,21.30
2022-08-14T22:31:23.111Z,21.30
2022-08-14T22:33:57.878Z,21.30
2022-08-14T22:36:49.888Z,21.30
2022-08-14T22:40:14.528Z,21.30
2022-08-14T22:42:23.261Z,21.20
2022-08-14T22:44:57.009Z,21.20
2022-08-14T22:47:40.528Z,21.10
2022-08-14T22:50:31.703Z,21.10
2022-08-14T22:53:07.006Z,21.10
2022-08-14T22:55:44.738Z,21.10
2022-08-14T22:58:30.349Z,21.10
2022-08-14T23:01:11.972Z,21.10
2022-08-14T23:03:46.015Z,21.10
2022-08-14T23:07:02.053Z,21.10
2022-08-14T23:09:35.926Z,21.00
2022-08-14T23:12:28.068Z,21.00
2022-08-14T23:15:02.319Z,21.00
2022-08-14T23:17:40.485Z,21.00
2022-08-14T23:20:19.787Z,21.00
2022-08-14T23:22:55.687Z,21.00
2022-08-14T23:25:57.511Z,21.00
2022-08-14T23:28:33.281Z,20.90
2022-08-14T23:31:33.469Z,20.90
2022-08-14T23:34:20.617Z,20.80
2022-08-14T23:36:59.216Z,20.90
2022-08-14T23:39:39.165Z,20.90
2022-08-14T23:42:13.377Z,20.90
2022-08-14T23:44:52.612Z,20.80
2022-08-14T23:47:26.627Z,20.70
2022-08-14T23:50:04.202Z,20.60
2022-08-14T23:52:50.500Z,20.70
2022-08-14T23:55:35.235Z,20.80
2022-08-14T23:58:08.459Z,20.80
